Impacts TAF Board
For situational awareness. Not to be used for flight planning purposes.
IDs:

KAUS - Austin/Bergstrom Int, TX, US

Issued at 1138 UTC 17 Nov 2019
Updated at 1426 UTC 17 Nov 2019
Potential Impact None Slight Moderate High
Time1353Z 17/15Z 17/16Z 17/17Z 17/18Z 17/19Z 17/20Z 17/21Z 17/22Z 17/23Z 18/00Z 18/01Z 18/02Z 18/03Z>>
Type OBS PRVL PRVL PRVL PRVL PRVL PRVL PRVL PRVL PRVL PRVL PRVL PRVL PRVL
VIS 9 >6 >6 >6 >6 >6 >6 >6 >6 >6 >6 >6 >6 >6
CIG 250 -- -- -- -- -- -- -- -- -- -- -- -- --
Cover BKN SCT SCT SCT SCT SCT SCT SCT SCT SCT SCT SCT SCT SCT
FltCat VFR VFR VFR VFR VFR VFR VFR VFR VFR VFR VFR VFR VFR VFR
WX -- -- -- -- -- -- -- -- -- -- -- -- -- --
WDir VRB 200 190 190 190 190 190 190 190 190 190 190 290 290
WSpd 0 5 5 5 5 5 5 5 5 5 5 5 5 5
WGst -- -- -- -- -- -- -- -- -- -- -- -- -- --
R17/35
XWnd VRB -2 -1 -1 -1 -1 -1 -1 -1 -1 -1 -1 -5 -5
HWnd VRB 5 5 5 5 5 5 5 5 5 5 5 -2 -2
Raw TAF
KAUS 171138Z 1712/1818 20005KT P6SM SCT250
  FM171600 19005KT P6SM SCT015
  FM180200 29005KT P6SM SCT250


Raw METAR
KAUS 171353Z 00000KT 9SM FEW200 BKN250 07/05 A3008 RMK AO2 SLP189 T00670050
KAUS 171253Z 00000KT 8SM FEW200 BKN250 03/02 A3007 RMK AO2 SLP187 T00330022
KAUS 171153Z 00000KT 9SM FEW250 04/03 A3006 RMK AO2 SLP180 T00390028 10072 20022 51003

METAR Board
Radar Display
Forecast Discussion
For situational awareness. Not to be used for flight planning purposes.